AFR579 GUCY-LFPG
Flight info
| Callsign | AFR579 |
|---|---|
| Flight time | N/A |
| Altitude | 39000 |
| Route | DIRNO1D DIRNO UR72 BUMBI UM372 TAMUL/N0480F410 UM372 BULIS/N0479F400 DCT MABAP UR722 SAK UG5 KORIS DCT SVL DCT HIJ DCT RUSEM DCT SOTUK DCT USOKO DCT TLD DCT SIE DCT EDIGO DCT DGO DCT ABRIX DCT CNA DCT POI/N0465F300 DCT PEPAX UT182 KEPER |
| Aircraft | A359/H-SABDE2E3GHIJ1J2J3J4J5M1P2RWXYZ/LB1D1 |
Departure
| Time | N/A |
|---|---|
| Airport | Ahmed Sékou Touré International Airport (GUCY) |
Arrival
| Time | 2026-05-04 17:13 |
|---|---|
| Airport | Charles de Gaulle International Airport (LFPG) |
| Time | Latitude | Longitude | Altitude | Speed | Heading |
|---|---|---|---|---|---|
| 2026-05-04 16:53 | 48.37950 | 0.93487 | 19733 ft | 416 kts | 65° |
| 2026-05-04 16:54 | 48.39236 | 0.97348 | 18653 ft | 409 kts | 64° |
| 2026-05-04 16:55 | 48.44200 | 1.11909 | 14928 ft | 362 kts | 64° |
| 2026-05-04 16:55 | 48.46434 | 1.18433 | 13735 ft | 342 kts | 64° |
| 2026-05-04 16:56 | 48.48522 | 1.24535 | 12464 ft | 314 kts | 64° |
| 2026-05-04 16:56 | 48.51393 | 1.32947 | 11912 ft | 297 kts | 64° |
| 2026-05-04 16:57 | 48.52341 | 1.35712 | 11766 ft | 297 kts | 64° |
| 2026-05-04 16:57 | 48.54234 | 1.41227 | 11408 ft | 295 kts | 64° |
| 2026-05-04 16:58 | 48.57128 | 1.49365 | 10967 ft | 293 kts | 54° |
| 2026-05-04 16:58 | 48.58634 | 1.51416 | 10916 ft | 294 kts | 32° |
| 2026-05-04 16:59 | 48.62293 | 1.54192 | 10698 ft | 294 kts | 26° |
| 2026-05-04 17:00 | 48.69568 | 1.59518 | 9368 ft | 286 kts | 27° |
| 2026-05-04 17:00 | 48.74888 | 1.63458 | 8921 ft | 283 kts | 27° |
| 2026-05-04 17:01 | 48.78207 | 1.66569 | 8921 ft | 280 kts | 46° |
| 2026-05-04 17:01 | 48.80431 | 1.71383 | 8922 ft | 279 kts | 59° |
| 2026-05-04 17:02 | 48.82438 | 1.76459 | 8930 ft | 282 kts | 59° |
| 2026-05-04 17:02 | 48.84446 | 1.81578 | 8887 ft | 281 kts | 60° |
| 2026-05-04 17:03 | 48.85438 | 1.84128 | 8841 ft | 278 kts | 60° |
| 2026-05-04 17:03 | 48.86415 | 1.86674 | 8585 ft | 280 kts | 59° |
| 2026-05-04 17:03 | 48.88378 | 1.91768 | 7454 ft | 279 kts | 59° |
| 2026-05-04 17:04 | 48.90306 | 1.96716 | 6686 ft | 269 kts | 60° |
| 2026-05-04 17:04 | 48.92188 | 2.01601 | 6297 ft | 258 kts | 60° |
| 2026-05-04 17:05 | 48.93898 | 2.06049 | 6105 ft | 233 kts | 60° |
| 2026-05-04 17:05 | 48.95452 | 2.10096 | 5915 ft | 211 kts | 60° |
| 2026-05-04 17:06 | 48.96782 | 2.14081 | 5720 ft | 212 kts | 73° |
| 2026-05-04 17:06 | 48.97085 | 2.16272 | 5547 ft | 211 kts | 82° |
| 2026-05-04 17:07 | 48.97367 | 2.20697 | 5078 ft | 210 kts | 84° |
| 2026-05-04 17:07 | 48.97409 | 2.21447 | 4962 ft | 209 kts | 85° |
| 2026-05-04 17:07 | 48.97562 | 2.24332 | 4544 ft | 198 kts | 85° |
| 2026-05-04 17:07 | 48.97673 | 2.26369 | 4252 ft | 188 kts | 84° |
| 2026-05-04 17:08 | 48.97777 | 2.28299 | 3990 ft | 178 kts | 85° |
| 2026-05-04 17:08 | 48.97971 | 2.31912 | 3572 ft | 165 kts | 84° |
| 2026-05-04 17:08 | 48.98064 | 2.33645 | 3339 ft | 164 kts | 84° |
| 2026-05-04 17:09 | 48.98156 | 2.35378 | 3111 ft | 164 kts | 84° |
| 2026-05-04 17:09 | 48.98249 | 2.37113 | 2888 ft | 164 kts | 84° |
| 2026-05-04 17:09 | 48.98342 | 2.38843 | 2667 ft | 164 kts | 84° |
| 2026-05-04 17:10 | 48.98524 | 2.42248 | 2231 ft | 158 kts | 84° |
| 2026-05-04 17:10 | 48.98774 | 2.46912 | 1623 ft | 134 kts | 85° |
| 2026-05-04 17:11 | 48.98849 | 2.48317 | 1452 ft | 133 kts | 84° |
| 2026-05-04 17:11 | 48.98924 | 2.49722 | 1281 ft | 133 kts | 84° |
| 2026-05-04 17:11 | 48.99073 | 2.52531 | 908 ft | 134 kts | 84° |
| 2026-05-04 17:12 | 48.99153 | 2.53942 | 725 ft | 134 kts | 83° |
| 2026-05-04 17:12 | 48.99305 | 2.56756 | 390 ft | 133 kts | 85° |
| 2026-05-04 17:13 | 48.99462 | 2.59713 | 359 ft | 35 kts | 80° |
| 2026-05-04 17:14 | 48.99721 | 2.59968 | 367 ft | 13 kts | 355° |
| 2026-05-04 17:14 | 48.99816 | 2.59958 | 366 ft | 14 kts | 356° |
| 2026-05-04 17:14 | 48.99984 | 2.60073 | 365 ft | 13 kts | 353° |
| 2026-05-04 17:15 | 49.00041 | 2.60011 | 363 ft | 8 kts | 336° |
| 2026-05-04 17:15 | 49.00092 | 2.59835 | 363 ft | 15 kts | 265° |
| 2026-05-04 17:16 | 49.00071 | 2.59452 | 362 ft | 19 kts | 265° |
| 2026-05-04 17:16 | 49.00157 | 2.59323 | 366 ft | 5 kts | 294° |
| 2026-05-04 17:17 | 49.00157 | 2.59282 | 367 ft | 4 kts | 266° |
| 2026-05-04 17:17 | 49.00154 | 2.59222 | 367 ft | 0 kts | 265° |